Airfield :
LOGIN :

Register | Disclaimer

   EN    FR    IT 

 










Legend :    VFR   Marginal VFR   IFR   Intensive IFR   Very Intensive IFR
Visi :
Ceiling :
>= 8 km
>= 3000ft
5 to 8 km
1000 to 3000 ft
1500m to 5 km
500 to 1000 ft
800 to 1500m
200 to 500 ft
< 800m
< 200 ft
Symbols :   Thunderstorms  Fog  Heavy snow  Heavy precipitations  Wind > 20 kt
SIGMETs :     Misc.  Thunderstorms  Icing  Turbulence  Mountain Waves  Volcanic Ashes






- Airport Elevation : 242 ft
- IATA code : DUB


EIDW - Dublin

CURRENT METAR :
  • 281300Z 22014G25KT 200V260 9999 FEW006 SCT014 BKN220 13/10 Q0988 TEMPO 4000 BKN007

EXPIRED METARs :
  • 281230Z 22012KT 190V260 9999 FEW006 SCT014 BKN220 13/10 Q0988 TEMPO 4000 BKN007
  • 281200Z 22015KT 190V250 9999 FEW006 SCT014 BKN025 12/10 Q0989 TEMPO 4000 BKN007
  • 281130Z 21012KT 9999 -RA FEW006 SCT014 BKN025 11/10 Q0990 TEMPO 4000 BKN007
  • 281100Z 21013KT 6000 -RA FEW006 SCT014 BKN025 11/10 Q0990 TEMPO 4000 BKN007
  • 281030Z 17005KT 140V200 9999 FEW006 SCT014 BKN020 11/09 Q0990 TEMPO 4000 BKN007

TAF TAF EIDW
Valid from the 28 at 12:00 until the 29 at 12:00 UTC


281100Z 2812/2912 20012G25KT 9999 -RA SCT012 BKN020
BECMG 2812/2814 23017G28KT
TEMPO 2812/2820 5000 -RADZ BKN010
BECMG 2814/2816 21013KT
BECMG 2819/2821 15008KT BKN014
TEMPO 2820/2824 5000 -RA BKN010
PROB30
TEMPO 2821/2824 2000 BKN003
BECMG 2822/2824 19012KT
BECMG 2900/2902 25015G27KT NSW FEW015 BKN025
TEMPO 2900/2903 25020G30KT
BECMG 2906/2908 22015G26KT
BECMG 2909/2911 21020G35KT
BECMG 2911/2912 20023G40KT
TEMPO 2911/2912 -SHRAGS SCT012 FEW018CB



MET'MAP, your aeronautical weather chart ! - Copyright ORBIFLY December 2007 - Disclaimer

ORBIFLY MET'MAP TEAM :

Programming & Development : Alexandra Zaïnal
Concept & original design : Baudouin d'Aumeries
Assistance for programming : Marc-Olivier Méhu
Technical & hardware support : Manuel Goepfert

Contact : metmap@orbifly.com




SOURCES & CREDITS :

   NOAA